sensor_id;sensor_type;location;lat;lon;timestamp;temperature;humidity
8888;DHT22;4480;52.370;9.748;2023-09-12T04:12:11;20.50;99.90
8888;DHT22;4480;52.370;9.748;2023-09-12T04:14:37;20.40;99.90
8888;DHT22;4480;52.370;9.748;2023-09-12T04:17:04;20.40;99.90
8888;DHT22;4480;52.370;9.748;2023-09-12T04:19:31;20.40;99.90
8888;DHT22;4480;52.370;9.748;2023-09-12T04:21:58;20.40;99.90
8888;DHT22;4480;52.370;9.748;2023-09-12T04:24:25;20.30;99.90
8888;DHT22;4480;52.370;9.748;2023-09-12T04:26:53;20.30;99.90
8888;DHT22;4480;52.370;9.748;2023-09-12T04:29:21;20.20;99.90
8888;DHT22;4480;52.370;9.748;2023-09-12T04:31:48;20.20;99.90
8888;DHT22;4480;52.370;9.748;2023-09-12T04:34:15;20.20;99.90
8888;DHT22;4480;52.370;9.748;2023-09-12T04:36:42;20.20;99.90
8888;DHT22;4480;52.370;9.748;2023-09-12T04:39:09;20.10;99.90
8888;DHT22;4480;52.370;9.748;2023-09-12T04:41:36;20.10;99.90
8888;DHT22;4480;52.370;9.748;2023-09-12T04:44:03;20.10;99.90
8888;DHT22;4480;52.370;9.748;2023-09-12T04:46:31;20.10;99.90
8888;DHT22;4480;52.370;9.748;2023-09-12T04:48:58;20.00;99.90
8888;DHT22;4480;52.370;9.748;2023-09-12T04:51:25;20.00;99.90
8888;DHT22;4480;52.370;9.748;2023-09-12T04:53:52;19.90;99.90
8888;DHT22;4480;52.370;9.748;2023-09-12T04:56:19;20.00;99.90
8888;DHT22;4480;52.370;9.748;2023-09-12T04:58:46;19.90;99.90
8888;DHT22;4480;52.370;9.748;2023-09-12T05:01:13;20.00;99.90
8888;DHT22;4480;52.370;9.748;2023-09-12T05:03:41;19.90;99.90
8888;DHT22;4480;52.370;9.748;2023-09-12T05:06:09;19.90;99.90
8888;DHT22;4480;52.370;9.748;2023-09-12T05:08:36;19.90;99.90
8888;DHT22;4480;52.370;9.748;2023-09-12T05:11:03;20.00;99.90
8888;DHT22;4480;52.370;9.748;2023-09-12T05:13:30;20.00;99.90
8888;DHT22;4480;52.370;9.748;2023-09-12T05:15:57;20.00;99.90
8888;DHT22;4480;52.370;9.748;2023-09-12T05:18:23;20.10;99.90
8888;DHT22;4480;52.370;9.748;2023-09-12T05:20:52;20.10;99.90
8888;DHT22;4480;52.370;9.748;2023-09-12T05:23:18;20.20;99.90
8888;DHT22;4480;52.370;9.748;2023-09-12T05:25:45;20.20;99.90
8888;DHT22;4480;52.370;9.748;2023-09-12T05:28:12;20.20;99.90
8888;DHT22;4480;52.370;9.748;2023-09-12T05:30:41;20.30;99.90
8888;DHT22;4480;52.370;9.748;2023-09-12T05:33:08;20.30;99.90
8888;DHT22;4480;52.370;9.748;2023-09-12T05:35:34;20.30;99.90
8888;DHT22;4480;52.370;9.748;2023-09-12T05:38:03;20.30;99.90
8888;DHT22;4480;52.370;9.748;2023-09-12T05:40:30;20.30;99.90
8888;DHT22;4480;52.370;9.748;2023-09-12T05:42:57;20.30;99.90
8888;DHT22;4480;52.370;9.748;2023-09-12T05:45:24;20.30;99.90
8888;DHT22;4480;52.370;9.748;2023-09-12T05:47:50;20.30;99.90
8888;DHT22;4480;52.370;9.748;2023-09-12T05:50:17;20.30;99.90
8888;DHT22;4480;52.370;9.748;2023-09-12T05:52:44;20.30;99.90
8888;DHT22;4480;52.370;9.748;2023-09-12T05:55:12;20.20;99.90
8888;DHT22;4480;52.370;9.748;2023-09-12T05:57:39;20.20;99.90
8888;DHT22;4480;52.370;9.748;2023-09-12T06:00:07;20.10;99.90
8888;DHT22;4480;52.370;9.748;2023-09-12T06:02:36;19.90;99.90
8888;DHT22;4480;52.370;9.748;2023-09-12T06:05:03;19.60;99.90
8888;DHT22;4480;52.370;9.748;2023-09-12T06:07:30;19.30;99.90
8888;DHT22;4480;52.370;9.748;2023-09-12T06:09:57;19.00;99.90
8888;DHT22;4480;52.370;9.748;2023-09-12T06:12:26;18.90;99.90
8888;DHT22;4480;52.370;9.748;2023-09-12T06:14:52;18.80;99.90
8888;DHT22;4480;52.370;9.748;2023-09-12T06:17:21;18.50;99.90
8888;DHT22;4480;52.370;9.748;2023-09-12T06:19:48;18.40;99.90
8888;DHT22;4480;52.370;9.748;2023-09-12T06:22:16;18.30;99.90
8888;DHT22;4480;52.370;9.748;2023-09-12T06:24:43;18.30;99.90
8888;DHT22;4480;52.370;9.748;2023-09-12T06:27:10;18.20;99.90
8888;DHT22;4480;52.370;9.748;2023-09-12T06:29:39;18.20;99.90
8888;DHT22;4480;52.370;9.748;2023-09-12T06:32:06;18.30;99.90
8888;DHT22;4480;52.370;9.748;2023-09-12T06:34:32;18.30;99.90
8888;DHT22;4480;52.370;9.748;2023-09-12T06:36:59;18.30;99.90
8888;DHT22;4480;52.370;9.748;2023-09-12T06:39:26;18.30;99.90
8888;DHT22;4480;52.370;9.748;2023-09-12T06:41:52;18.20;99.90
8888;DHT22;4480;52.370;9.748;2023-09-12T06:44:19;18.20;99.90
8888;DHT22;4480;52.370;9.748;2023-09-12T06:46:47;18.20;99.90
8888;DHT22;4480;52.370;9.748;2023-09-12T06:49:14;18.20;99.90
8888;DHT22;4480;52.370;9.748;2023-09-12T06:51:41;18.30;99.90
8888;DHT22;4480;52.370;9.748;2023-09-12T06:54:07;18.30;99.90
8888;DHT22;4480;52.370;9.748;2023-09-12T06:56:34;18.40;99.90
8888;DHT22;4480;52.370;9.748;2023-09-12T06:59:03;18.40;99.90
8888;DHT22;4480;52.370;9.748;2023-09-12T07:01:29;18.40;99.90
8888;DHT22;4480;52.370;9.748;2023-09-12T07:03:58;18.50;99.90
8888;DHT22;4480;52.370;9.748;2023-09-12T07:06:24;18.50;99.90
8888;DHT22;4480;52.370;9.748;2023-09-12T07:08:51;18.60;99.90
8888;DHT22;4480;52.370;9.748;2023-09-12T07:11:18;18.60;99.90
8888;DHT22;4480;52.370;9.748;2023-09-12T07:13:45;18.70;99.90
8888;DHT22;4480;52.370;9.748;2023-09-12T07:16:11;18.90;99.90
8888;DHT22;4480;52.370;9.748;2023-09-12T07:18:38;18.90;99.90
8888;DHT22;4480;52.370;9.748;2023-09-12T07:21:07;19.00;99.90
8888;DHT22;4480;52.370;9.748;2023-09-12T07:23:36;19.20;99.90
8888;DHT22;4480;52.370;9.748;2023-09-12T07:26:03;19.30;99.90
8888;DHT22;4480;52.370;9.748;2023-09-12T07:28:30;19.30;99.90
8888;DHT22;4480;52.370;9.748;2023-09-12T07:30:57;19.40;99.90
8888;DHT22;4480;52.370;9.748;2023-09-12T07:33:24;19.50;99.90
8888;DHT22;4480;52.370;9.748;2023-09-12T07:35:52;19.60;99.90
8888;DHT22;4480;52.370;9.748;2023-09-12T07:38:20;19.70;99.90
8888;DHT22;4480;52.370;9.748;2023-09-12T07:40:47;19.80;99.90
8888;DHT22;4480;52.370;9.748;2023-09-12T07:43:14;19.90;99.90
8888;DHT22;4480;52.370;9.748;2023-09-12T07:45:42;19.90;99.90
8888;DHT22;4480;52.370;9.748;2023-09-12T07:48:09;20.00;99.90
8888;DHT22;4480;52.370;9.748;2023-09-12T07:50:37;20.10;99.90
8888;DHT22;4480;52.370;9.748;2023-09-12T07:53:04;20.20;99.90
8888;DHT22;4480;52.370;9.748;2023-09-12T07:55:36;20.30;99.90
8888;DHT22;4480;52.370;9.748;2023-09-12T07:58:10;20.50;99.90
8888;DHT22;4480;52.370;9.748;2023-09-12T08:00:37;20.60;99.90
8888;DHT22;4480;52.370;9.748;2023-09-12T08:03:04;20.80;99.90
8888;DHT22;4480;52.370;9.748;2023-09-12T08:05:31;20.90;99.90
8888;DHT22;4480;52.370;9.748;2023-09-12T08:07:57;20.90;99.90
8888;DHT22;4480;52.370;9.748;2023-09-12T08:10:24;20.90;99.90
8888;DHT22;4480;52.370;9.748;2023-09-12T08:12:52;20.80;99.90
8888;DHT22;4480;52.370;9.748;2023-09-12T08:15:19;20.70;99.90
8888;DHT22;4480;52.370;9.748;2023-09-12T08:17:46;20.60;99.90
8888;DHT22;4480;52.370;9.748;2023-09-12T08:20:17;20.60;99.90
8888;DHT22;4480;52.370;9.748;2023-09-12T08:22:44;20.60;99.90
8888;DHT22;4480;52.370;9.748;2023-09-12T08:25:10;20.60;99.90
8888;DHT22;4480;52.370;9.748;2023-09-12T08:27:38;20.50;99.90
8888;DHT22;4480;52.370;9.748;2023-09-12T08:30:07;20.50;99.90
8888;DHT22;4480;52.370;9.748;2023-09-12T08:32:34;20.40;99.90
8888;DHT22;4480;52.370;9.748;2023-09-12T08:35:01;20.40;99.90
8888;DHT22;4480;52.370;9.748;2023-09-12T08:37:29;20.50;99.90
8888;DHT22;4480;52.370;9.748;2023-09-12T08:39:56;20.50;99.90
8888;DHT22;4480;52.370;9.748;2023-09-12T08:42:26;20.70;99.90
8888;DHT22;4480;52.370;9.748;2023-09-12T08:44:53;20.70;99.90
8888;DHT22;4480;52.370;9.748;2023-09-12T08:47:23;20.80;99.90
8888;DHT22;4480;52.370;9.748;2023-09-12T08:49:49;20.90;99.90
8888;DHT22;4480;52.370;9.748;2023-09-12T08:52:16;21.00;99.90
8888;DHT22;4480;52.370;9.748;2023-09-12T08:54:43;21.00;99.90
8888;DHT22;4480;52.370;9.748;2023-09-12T08:57:10;20.90;99.90
8888;DHT22;4480;52.370;9.748;2023-09-12T08:59:39;20.90;99.90
8888;DHT22;4480;52.370;9.748;2023-09-12T09:02:09;21.00;99.90
8888;DHT22;4480;52.370;9.748;2023-09-12T09:04:38;21.00;99.90
8888;DHT22;4480;52.370;9.748;2023-09-12T09:07:06;21.00;99.90
8888;DHT22;4480;52.370;9.748;2023-09-12T09:09:34;21.00;99.90
8888;DHT22;4480;52.370;9.748;2023-09-12T09:12:01;21.10;99.90
8888;DHT22;4480;52.370;9.748;2023-09-12T09:14:29;21.10;99.90
8888;DHT22;4480;52.370;9.748;2023-09-12T09:16:56;21.10;99.90
8888;DHT22;4480;52.370;9.748;2023-09-12T09:19:41;21.00;99.90
8888;DHT22;4480;52.370;9.748;2023-09-12T09:22:08;20.90;99.90
8888;DHT22;4480;52.370;9.748;2023-09-12T09:24:35;20.80;99.90
8888;DHT22;4480;52.370;9.748;2023-09-12T09:27:02;20.60;99.90
8888;DHT22;4480;52.370;9.748;2023-09-12T09:29:29;20.50;99.90
8888;DHT22;4480;52.370;9.748;2023-09-12T09:31:59;20.40;99.90
8888;DHT22;4480;52.370;9.748;2023-09-12T09:34:26;20.30;99.90
8888;DHT22;4480;52.370;9.748;2023-09-12T09:36:56;20.20;99.90
8888;DHT22;4480;52.370;9.748;2023-09-12T09:39:24;20.10;99.90
8888;DHT22;4480;52.370;9.748;2023-09-12T09:41:54;19.90;99.90
8888;DHT22;4480;52.370;9.748;2023-09-12T09:44:21;19.70;99.90
8888;DHT22;4480;52.370;9.748;2023-09-12T09:46:51;19.50;99.90
8888;DHT22;4480;52.370;9.748;2023-09-12T09:49:19;19.20;99.90
8888;DHT22;4480;52.370;9.748;2023-09-12T09:51:47;19.00;99.90
8888;DHT22;4480;52.370;9.748;2023-09-12T09:54:15;18.80;99.90
8888;DHT22;4480;52.370;9.748;2023-09-12T09:56:45;18.80;99.90
8888;DHT22;4480;52.370;9.748;2023-09-12T09:59:14;18.70;99.90
8888;DHT22;4480;52.370;9.748;2023-09-12T10:01:41;18.70;99.90
8888;DHT22;4480;52.370;9.748;2023-09-12T10:04:09;18.60;99.90
8888;DHT22;4480;52.370;9.748;2023-09-12T10:06:37;18.60;99.90
8888;DHT22;4480;52.370;9.748;2023-09-12T10:09:06;18.50;99.90
8888;DHT22;4480;52.370;9.748;2023-09-12T10:11:37;18.60;99.90
8888;DHT22;4480;52.370;9.748;2023-09-12T10:14:05;18.60;99.90
8888;DHT22;4480;52.370;9.748;2023-09-12T10:16:33;18.70;99.90
8888;DHT22;4480;52.370;9.748;2023-09-12T10:19:07;18.70;99.90
8888;DHT22;4480;52.370;9.748;2023-09-12T10:21:36;18.70;99.90
8888;DHT22;4480;52.370;9.748;2023-09-12T10:24:03;18.70;99.90
8888;DHT22;4480;52.370;9.748;2023-09-12T10:26:31;18.80;99.90
8888;DHT22;4480;52.370;9.748;2023-09-12T10:29:00;18.80;99.90
8888;DHT22;4480;52.370;9.748;2023-09-12T10:31:29;18.80;99.90
8888;DHT22;4480;52.370;9.748;2023-09-12T10:33:57;18.80;99.90
8888;DHT22;4480;52.370;9.748;2023-09-12T10:36:25;18.70;99.90
8888;DHT22;4480;52.370;9.748;2023-09-12T10:38:52;18.70;99.90
8888;DHT22;4480;52.370;9.748;2023-09-12T10:41:21;18.70;99.90
8888;DHT22;4480;52.370;9.748;2023-09-12T10:43:53;18.70;99.90
8888;DHT22;4480;52.370;9.748;2023-09-12T10:46:21;18.70;99.90
8888;DHT22;4480;52.370;9.748;2023-09-12T10:48:49;18.70;99.90
8888;DHT22;4480;52.370;9.748;2023-09-12T10:51:16;18.70;99.90
8888;DHT22;4480;52.370;9.748;2023-09-12T10:53:47;18.70;99.90
8888;DHT22;4480;52.370;9.748;2023-09-12T10:56:17;18.70;99.90
8888;DHT22;4480;52.370;9.748;2023-09-12T10:59:09;18.70;99.90
8888;DHT22;4480;52.370;9.748;2023-09-12T11:01:40;18.80;99.90
8888;DHT22;4480;52.370;9.748;2023-09-12T11:04:29;18.80;99.90
8888;DHT22;4480;52.370;9.748;2023-09-12T11:06:58;18.90;99.90
8888;DHT22;4480;52.370;9.748;2023-09-12T11:09:25;18.90;99.90
8888;DHT22;4480;52.370;9.748;2023-09-12T11:11:56;19.00;99.90
8888;DHT22;4480;52.370;9.748;2023-09-12T11:14:23;19.00;99.90
8888;DHT22;4480;52.370;9.748;2023-09-12T11:17:23;19.10;99.90
8888;DHT22;4480;52.370;9.748;2023-09-12T11:19:50;19.10;99.90
8888;DHT22;4480;52.370;9.748;2023-09-12T11:22:25;19.20;99.90
8888;DHT22;4480;52.370;9.748;2023-09-12T11:24:53;19.20;99.90
8888;DHT22;4480;52.370;9.748;2023-09-12T11:27:22;19.10;99.90
8888;DHT22;4480;52.370;9.748;2023-09-12T11:29:49;19.10;99.90
8888;DHT22;4480;52.370;9.748;2023-09-12T11:32:30;19.00;99.90
8888;DHT22;4480;52.370;9.748;2023-09-12T11:34:57;19.00;99.90
8888;DHT22;4480;52.370;9.748;2023-09-12T11:37:26;18.90;99.90
8888;DHT22;4480;52.370;9.748;2023-09-12T11:39:54;18.90;99.90
8888;DHT22;4480;52.370;9.748;2023-09-12T11:42:23;18.80;99.90
8888;DHT22;4480;52.370;9.748;2023-09-12T11:44:51;18.80;99.90
8888;DHT22;4480;52.370;9.748;2023-09-12T11:47:18;18.80;99.90
8888;DHT22;4480;52.370;9.748;2023-09-12T11:49:47;18.80;99.90
8888;DHT22;4480;52.370;9.748;2023-09-12T11:52:15;18.80;99.90
8888;DHT22;4480;52.370;9.748;2023-09-12T11:54:43;18.80;99.90
8888;DHT22;4480;52.370;9.748;2023-09-12T11:57:12;18.70;99.90
8888;DHT22;4480;52.370;9.748;2023-09-12T11:59:41;18.70;99.90
8888;DHT22;4480;52.370;9.748;2023-09-12T12:02:10;18.70;99.90
8888;DHT22;4480;52.370;9.748;2023-09-12T12:04:37;18.70;99.90
8888;DHT22;4480;52.370;9.748;2023-09-12T12:07:06;18.70;99.90
8888;DHT22;4480;52.370;9.748;2023-09-12T12:09:33;18.70;99.90
8888;DHT22;4480;52.370;9.748;2023-09-12T12:12:08;18.70;99.90
8888;DHT22;4480;52.370;9.748;2023-09-12T12:14:35;18.70;99.90
8888;DHT22;4480;52.370;9.748;2023-09-12T12:17:06;18.70;99.90
8888;DHT22;4480;52.370;9.748;2023-09-12T12:19:34;18.80;99.90
8888;DHT22;4480;52.370;9.748;2023-09-12T12:22:02;18.70;99.90
8888;DHT22;4480;52.370;9.748;2023-09-12T12:24:38;18.70;99.90
8888;DHT22;4480;52.370;9.748;2023-09-12T12:27:05;18.70;99.90
8888;DHT22;4480;52.370;9.748;2023-09-12T12:29:33;18.80;99.90
8888;DHT22;4480;52.370;9.748;2023-09-12T12:32:00;18.80;99.90
8888;DHT22;4480;52.370;9.748;2023-09-12T12:34:27;18.80;99.90
8888;DHT22;4480;52.370;9.748;2023-09-12T12:36:54;18.90;99.90
8888;DHT22;4480;52.370;9.748;2023-09-12T12:39:21;19.00;99.90
8888;DHT22;4480;52.370;9.748;2023-09-12T12:41:51;19.00;99.90
8888;DHT22;4480;52.370;9.748;2023-09-12T12:44:19;19.00;99.90
8888;DHT22;4480;52.370;9.748;2023-09-12T12:46:49;19.00;99.90
8888;DHT22;4480;52.370;9.748;2023-09-12T12:49:16;19.10;99.90
8888;DHT22;4480;52.370;9.748;2023-09-12T12:51:43;19.20;99.90
8888;DHT22;4480;52.370;9.748;2023-09-12T12:54:09;19.30;99.90
8888;DHT22;4480;52.370;9.748;2023-09-12T12:56:38;19.40;99.90
8888;DHT22;4480;52.370;9.748;2023-09-12T12:59:07;19.40;99.90
8888;DHT22;4480;52.370;9.748;2023-09-12T13:01:35;19.50;99.90
8888;DHT22;4480;52.370;9.748;2023-09-12T13:04:04;19.60;99.90
8888;DHT22;4480;52.370;9.748;2023-09-12T13:06:31;19.70;99.90
8888;DHT22;4480;52.370;9.748;2023-09-12T13:09:01;19.90;99.90
8888;DHT22;4480;52.370;9.748;2023-09-12T13:11:30;20.10;99.90
8888;DHT22;4480;52.370;9.748;2023-09-12T13:13:57;20.40;99.90
8888;DHT22;4480;52.370;9.748;2023-09-12T13:16:25;20.60;99.90
8888;DHT22;4480;52.370;9.748;2023-09-12T13:18:52;20.90;99.90
8888;DHT22;4480;52.370;9.748;2023-09-12T13:21:18;21.10;99.90
8888;DHT22;4480;52.370;9.748;2023-09-12T13:23:45;21.40;99.90
8888;DHT22;4480;52.370;9.748;2023-09-12T13:26:12;21.50;99.90
8888;DHT22;4480;52.370;9.748;2023-09-12T13:28:39;21.70;99.90
8888;DHT22;4480;52.370;9.748;2023-09-12T13:31:06;21.80;99.90
8888;DHT22;4480;52.370;9.748;2023-09-12T13:33:34;21.80;99.90
8888;DHT22;4480;52.370;9.748;2023-09-12T13:36:01;21.80;99.90
8888;DHT22;4480;52.370;9.748;2023-09-12T13:38:29;21.90;99.90
8888;DHT22;4480;52.370;9.748;2023-09-12T13:40:55;22.00;99.90
8888;DHT22;4480;52.370;9.748;2023-09-12T13:43:22;22.10;99.90
8888;DHT22;4480;52.370;9.748;2023-09-12T13:45:49;22.20;99.90
8888;DHT22;4480;52.370;9.748;2023-09-12T13:48:16;22.30;99.90
8888;DHT22;4480;52.370;9.748;2023-09-12T13:50:45;22.30;99.90
8888;DHT22;4480;52.370;9.748;2023-09-12T13:53:11;22.20;99.90
8888;DHT22;4480;52.370;9.748;2023-09-12T13:55:38;22.20;99.90
8888;DHT22;4480;52.370;9.748;2023-09-12T13:58:05;22.20;99.90
8888;DHT22;4480;52.370;9.748;2023-09-12T14:00:33;22.40;99.90
8888;DHT22;4480;52.370;9.748;2023-09-12T14:03:00;22.60;99.90
8888;DHT22;4480;52.370;9.748;2023-09-12T14:05:27;22.60;99.90
8888;DHT22;4480;52.370;9.748;2023-09-12T14:07:55;22.60;99.90
8888;DHT22;4480;52.370;9.748;2023-09-12T14:10:22;22.70;99.90
8888;DHT22;4480;52.370;9.748;2023-09-12T14:12:49;22.90;99.90
8888;DHT22;4480;52.370;9.748;2023-09-12T14:15:16;23.00;99.90
8888;DHT22;4480;52.370;9.748;2023-09-12T14:17:42;23.10;99.90
8888;DHT22;4480;52.370;9.748;2023-09-12T14:20:10;23.10;99.90
8888;DHT22;4480;52.370;9.748;2023-09-12T14:22:41;23.20;99.90
8888;DHT22;4480;52.370;9.748;2023-09-12T14:25:09;23.20;99.90
8888;DHT22;4480;52.370;9.748;2023-09-12T14:27:40;23.20;99.90
8888;DHT22;4480;52.370;9.748;2023-09-12T14:30:08;23.30;99.90
8888;DHT22;4480;52.370;9.748;2023-09-12T14:32:35;23.30;99.90
8888;DHT22;4480;52.370;9.748;2023-09-12T14:35:03;23.20;99.90
8888;DHT22;4480;52.370;9.748;2023-09-12T14:37:30;23.30;99.90
8888;DHT22;4480;52.370;9.748;2023-09-12T14:39:56;23.30;99.90
8888;DHT22;4480;52.370;9.748;2023-09-12T14:42:24;23.30;99.90
8888;DHT22;4480;52.370;9.748;2023-09-12T14:44:51;23.20;99.90
8888;DHT22;4480;52.370;9.748;2023-09-12T14:47:18;23.20;99.90
8888;DHT22;4480;52.370;9.748;2023-09-12T14:49:44;23.30;99.90
8888;DHT22;4480;52.370;9.748;2023-09-12T14:52:11;23.20;99.90
8888;DHT22;4480;52.370;9.748;2023-09-12T14:54:38;23.30;99.90
8888;DHT22;4480;52.370;9.748;2023-09-12T14:57:05;23.30;99.90
8888;DHT22;4480;52.370;9.748;2023-09-12T14:59:33;23.40;99.90
8888;DHT22;4480;52.370;9.748;2023-09-12T15:01:59;23.50;99.90
8888;DHT22;4480;52.370;9.748;2023-09-12T15:04:26;23.40;99.90
8888;DHT22;4480;52.370;9.748;2023-09-12T15:06:53;23.40;99.90
8888;DHT22;4480;52.370;9.748;2023-09-12T15:09:20;23.40;99.90
8888;DHT22;4480;52.370;9.748;2023-09-12T15:11:46;23.40;99.90
8888;DHT22;4480;52.370;9.748;2023-09-12T15:14:13;23.40;99.90
8888;DHT22;4480;52.370;9.748;2023-09-12T15:16:42;23.40;99.90
8888;DHT22;4480;52.370;9.748;2023-09-12T15:19:09;23.40;99.90
8888;DHT22;4480;52.370;9.748;2023-09-12T15:21:36;23.40;99.90
8888;DHT22;4480;52.370;9.748;2023-09-12T15:24:03;23.40;99.90
8888;DHT22;4480;52.370;9.748;2023-09-12T15:26:30;23.30;99.90
8888;DHT22;4480;52.370;9.748;2023-09-12T15:28:56;23.30;99.90
8888;DHT22;4480;52.370;9.748;2023-09-12T15:31:24;23.30;99.90
8888;DHT22;4480;52.370;9.748;2023-09-12T15:33:52;23.40;99.90
8888;DHT22;4480;52.370;9.748;2023-09-12T15:36:20;23.40;99.90
8888;DHT22;4480;52.370;9.748;2023-09-12T15:38:47;23.40;99.90
8888;DHT22;4480;52.370;9.748;2023-09-12T15:41:14;23.40;99.90
8888;DHT22;4480;52.370;9.748;2023-09-12T15:43:40;23.40;99.90
8888;DHT22;4480;52.370;9.748;2023-09-12T15:46:07;23.40;99.90
8888;DHT22;4480;52.370;9.748;2023-09-12T15:48:34;23.30;99.90
8888;DHT22;4480;52.370;9.748;2023-09-12T15:51:02;23.30;99.90
8888;DHT22;4480;52.370;9.748;2023-09-12T15:53:31;23.20;99.90
8888;DHT22;4480;52.370;9.748;2023-09-12T15:55:57;23.20;99.90
8888;DHT22;4480;52.370;9.748;2023-09-12T15:58:24;23.10;99.90
8888;DHT22;4480;52.370;9.748;2023-09-12T16:00:52;23.10;99.90
8888;DHT22;4480;52.370;9.748;2023-09-12T16:03:20;23.00;99.90
8888;DHT22;4480;52.370;9.748;2023-09-12T16:05:47;23.00;99.90
8888;DHT22;4480;52.370;9.748;2023-09-12T16:08:15;23.00;99.90
8888;DHT22;4480;52.370;9.748;2023-09-12T16:10:42;22.90;99.90
8888;DHT22;4480;52.370;9.748;2023-09-12T16:13:08;22.90;99.90
8888;DHT22;4480;52.370;9.748;2023-09-12T16:15:35;22.90;99.90
8888;DHT22;4480;52.370;9.748;2023-09-12T16:18:02;22.90;99.90
8888;DHT22;4480;52.370;9.748;2023-09-12T16:20:29;22.90;99.90
8888;DHT22;4480;52.370;9.748;2023-09-12T16:22:56;22.90;99.90
8888;DHT22;4480;52.370;9.748;2023-09-12T16:25:24;22.90;99.90
8888;DHT22;4480;52.370;9.748;2023-09-12T16:27:51;22.80;99.90
8888;DHT22;4480;52.370;9.748;2023-09-12T16:30:17;22.80;99.90
8888;DHT22;4480;52.370;9.748;2023-09-12T16:32:44;22.80;99.90
8888;DHT22;4480;52.370;9.748;2023-09-12T16:35:11;22.80;99.90
8888;DHT22;4480;52.370;9.748;2023-09-12T16:37:38;22.90;99.90
8888;DHT22;4480;52.370;9.748;2023-09-12T16:40:06;22.90;99.90
8888;DHT22;4480;52.370;9.748;2023-09-12T16:42:35;22.90;99.90
8888;DHT22;4480;52.370;9.748;2023-09-12T16:45:01;22.90;99.90
8888;DHT22;4480;52.370;9.748;2023-09-12T16:47:29;22.90;99.90
8888;DHT22;4480;52.370;9.748;2023-09-12T16:49:57;22.90;99.90
8888;DHT22;4480;52.370;9.748;2023-09-12T16:52:24;22.80;99.90
8888;DHT22;4480;52.370;9.748;2023-09-12T16:54:50;22.70;99.90
8888;DHT22;4480;52.370;9.748;2023-09-12T16:57:17;22.60;99.90
8888;DHT22;4480;52.370;9.748;2023-09-12T16:59:45;22.50;99.90
8888;DHT22;4480;52.370;9.748;2023-09-12T17:02:12;22.40;99.90
8888;DHT22;4480;52.370;9.748;2023-09-12T17:04:39;22.20;99.90
8888;DHT22;4480;52.370;9.748;2023-09-12T17:07:08;22.10;99.90
8888;DHT22;4480;52.370;9.748;2023-09-12T17:09:35;22.00;99.90
8888;DHT22;4480;52.370;9.748;2023-09-12T17:12:01;21.90;99.90
8888;DHT22;4480;52.370;9.748;2023-09-12T17:14:28;21.80;99.90
8888;DHT22;4480;52.370;9.748;2023-09-12T17:16:56;21.60;99.90
8888;DHT22;4480;52.370;9.748;2023-09-12T17:19:23;21.60;99.90
8888;DHT22;4480;52.370;9.748;2023-09-12T17:21:50;21.50;99.90
8888;DHT22;4480;52.370;9.748;2023-09-12T17:24:16;21.50;99.90
8888;DHT22;4480;52.370;9.748;2023-09-12T17:26:43;21.40;99.90
8888;DHT22;4480;52.370;9.748;2023-09-12T17:29:10;21.30;99.90
8888;DHT22;4480;52.370;9.748;2023-09-12T17:31:37;21.30;99.90
8888;DHT22;4480;52.370;9.748;2023-09-12T17:34:05;21.10;99.90
8888;DHT22;4480;52.370;9.748;2023-09-12T17:36:33;21.00;99.90
8888;DHT22;4480;52.370;9.748;2023-09-12T17:38:59;20.90;99.90
8888;DHT22;4480;52.370;9.748;2023-09-12T17:41:26;20.80;99.90
8888;DHT22;4480;52.370;9.748;2023-09-12T17:43:53;20.70;99.90
8888;DHT22;4480;52.370;9.748;2023-09-12T17:46:19;20.70;99.90
8888;DHT22;4480;52.370;9.748;2023-09-12T17:48:46;20.60;99.90
8888;DHT22;4480;52.370;9.748;2023-09-12T17:51:14;20.50;99.90
8888;DHT22;4480;52.370;9.748;2023-09-12T17:53:41;20.50;99.90
8888;DHT22;4480;52.370;9.748;2023-09-12T17:56:08;20.40;99.90
8888;DHT22;4480;52.370;9.748;2023-09-12T17:58:34;20.40;99.90
8888;DHT22;4480;52.370;9.748;2023-09-12T18:01:01;20.40;99.90
8888;DHT22;4480;52.370;9.748;2023-09-12T18:03:29;20.40;99.90
8888;DHT22;4480;52.370;9.748;2023-09-12T18:05:56;20.40;99.90
8888;DHT22;4480;52.370;9.748;2023-09-12T18:08:25;20.30;99.90
8888;DHT22;4480;52.370;9.748;2023-09-12T18:10:51;20.30;99.90
8888;DHT22;4480;52.370;9.748;2023-09-12T18:13:18;20.30;99.90
8888;DHT22;4480;52.370;9.748;2023-09-12T18:15:45;20.20;99.90
8888;DHT22;4480;52.370;9.748;2023-09-12T18:18:11;20.20;99.90
8888;DHT22;4480;52.370;9.748;2023-09-12T18:20:38;20.20;99.90
8888;DHT22;4480;52.370;9.748;2023-09-12T18:23:05;20.10;99.90
8888;DHT22;4480;52.370;9.748;2023-09-12T18:25:33;20.10;99.90
8888;DHT22;4480;52.370;9.748;2023-09-12T18:28:00;20.10;99.90
8888;DHT22;4480;52.370;9.748;2023-09-12T18:30:26;20.10;99.90
8888;DHT22;4480;52.370;9.748;2023-09-12T18:32:53;20.10;99.90
8888;DHT22;4480;52.370;9.748;2023-09-12T18:35:22;20.10;99.90
8888;DHT22;4480;52.370;9.748;2023-09-12T18:37:49;20.10;99.90
8888;DHT22;4480;52.370;9.748;2023-09-12T18:40:17;20.10;99.90
8888;DHT22;4480;52.370;9.748;2023-09-12T18:42:45;20.10;99.90
8888;DHT22;4480;52.370;9.748;2023-09-12T18:45:11;20.10;99.90
8888;DHT22;4480;52.370;9.748;2023-09-12T18:47:38;20.10;99.90
8888;DHT22;4480;52.370;9.748;2023-09-12T18:50:06;20.00;99.90
8888;DHT22;4480;52.370;9.748;2023-09-12T18:52:33;20.00;99.90
8888;DHT22;4480;52.370;9.748;2023-09-12T18:54:58;20.00;99.90
8888;DHT22;4480;52.370;9.748;2023-09-12T18:57:25;19.90;99.90
8888;DHT22;4480;52.370;9.748;2023-09-12T18:59:53;19.90;99.90
8888;DHT22;4480;52.370;9.748;2023-09-12T19:02:20;19.90;99.90
8888;DHT22;4480;52.370;9.748;2023-09-12T19:04:47;19.80;99.90
8888;DHT22;4480;52.370;9.748;2023-09-12T19:07:14;19.80;99.90
8888;DHT22;4480;52.370;9.748;2023-09-12T19:09:40;19.80;99.90
8888;DHT22;4480;52.370;9.748;2023-09-12T19:12:08;19.80;99.90
8888;DHT22;4480;52.370;9.748;2023-09-12T19:14:35;19.70;99.90
8888;DHT22;4480;52.370;9.748;2023-09-12T19:17:03;19.70;99.90
8888;DHT22;4480;52.370;9.748;2023-09-12T19:19:31;19.70;99.90
8888;DHT22;4480;52.370;9.748;2023-09-12T19:21:57;19.70;99.90
8888;DHT22;4480;52.370;9.748;2023-09-12T19:24:24;19.70;99.90
8888;DHT22;4480;52.370;9.748;2023-09-12T19:26:51;19.70;99.90
8888;DHT22;4480;52.370;9.748;2023-09-12T19:29:18;19.70;99.90
8888;DHT22;4480;52.370;9.748;2023-09-12T19:31:44;19.70;99.90
8888;DHT22;4480;52.370;9.748;2023-09-12T19:34:13;19.60;99.90
8888;DHT22;4480;52.370;9.748;2023-09-12T19:36:40;19.60;99.90
8888;DHT22;4480;52.370;9.748;2023-09-12T19:39:07;19.50;99.90
8888;DHT22;4480;52.370;9.748;2023-09-12T19:41:33;19.50;99.90
8888;DHT22;4480;52.370;9.748;2023-09-12T19:44:00;19.50;99.90
8888;DHT22;4480;52.370;9.748;2023-09-12T19:46:27;19.40;99.90
8888;DHT22;4480;52.370;9.748;2023-09-12T19:48:54;19.40;99.90
8888;DHT22;4480;52.370;9.748;2023-09-12T19:51:22;19.30;99.90
8888;DHT22;4480;52.370;9.748;2023-09-12T19:53:49;19.30;99.90
8888;DHT22;4480;52.370;9.748;2023-09-12T19:56:15;19.30;99.90
8888;DHT22;4480;52.370;9.748;2023-09-12T19:58:42;19.20;99.90
8888;DHT22;4480;52.370;9.748;2023-09-12T20:01:09;19.20;99.90
8888;DHT22;4480;52.370;9.748;2023-09-12T20:03:35;19.20;99.90
8888;DHT22;4480;52.370;9.748;2023-09-12T20:06:02;19.20;99.90
8888;DHT22;4480;52.370;9.748;2023-09-12T20:08:30;19.20;99.90
8888;DHT22;4480;52.370;9.748;2023-09-12T20:10:57;19.20;99.90
8888;DHT22;4480;52.370;9.748;2023-09-12T20:13:25;19.20;99.90
8888;DHT22;4480;52.370;9.748;2023-09-12T20:15:52;19.20;99.90